Kaolack, Senegal
Current Conditions -  °F | °C
As of 12:00 PM on Monday 26 Jan 2015 (Local Time) from GOOK Reporting Station
Clear Clear  
Wind Chill: 86°   Ceiling: Unl
Heat Index: 86°   Visibility: 6mi
Dew Point: 48°   Wind: 14mph
Humidity: 27%   Direction: 80°E
Pressure: 29.97"   Gusts: NA
Location:  14.15°N, 16.1°W
Report Text: GOOK 261200Z 08012KT CAVOK 30/09 Q1015
Loading
Personal Weather Stations






























Interactive Weather Map New forecast layout! Learn more

10-Day Weather Forecast

Advertisements
Track Severe Weather on mobile